createdAt,value
2019-02-17T00:02:39.978Z,4.50
2019-02-17T00:07:44.198Z,3.90
2019-02-17T00:12:49.295Z,4.47
2019-02-17T00:17:53.488Z,4.40
2019-02-17T00:22:59.141Z,4.20
2019-02-17T00:28:03.309Z,5.17
2019-02-17T00:33:08.345Z,4.13
2019-02-17T00:38:12.522Z,5.27
2019-02-17T00:43:17.464Z,4.70
2019-02-17T00:48:21.670Z,5.37
2019-02-17T00:53:25.912Z,5.10
2019-02-17T00:58:30.127Z,5.90
2019-02-17T01:03:34.702Z,5.07
2019-02-17T01:08:38.899Z,5.13
2019-02-17T01:13:43.208Z,4.90
2019-02-17T01:18:47.387Z,4.30
2019-02-17T01:23:52.033Z,4.50
2019-02-17T01:28:56.228Z,4.43
2019-02-17T01:34:07.310Z,5.50
2019-02-17T01:39:12.553Z,4.80
2019-02-17T01:44:17.371Z,4.87
2019-02-17T01:49:21.566Z,4.73
2019-02-17T01:54:26.537Z,5.23
2019-02-17T01:59:31.058Z,5.17
2019-02-17T02:04:35.734Z,4.80
2019-02-17T02:09:39.911Z,5.50
2019-02-17T02:14:46.181Z,6.50
2019-02-17T02:19:50.431Z,5.17
2019-02-17T02:24:55.669Z,5.37
2019-02-17T02:29:59.865Z,5.27
2019-02-17T02:35:04.843Z,6.07
2019-02-17T02:40:10.139Z,6.27
2019-02-17T02:45:14.633Z,6.27
2019-02-17T02:50:20.163Z,5.37
2019-02-17T02:55:24.514Z,6.83
2019-02-17T03:00:28.690Z,5.80
2019-02-17T03:05:33.502Z,6.20
2019-02-17T03:10:37.675Z,6.00
2019-02-17T03:15:43.491Z,5.93
2019-02-17T03:20:47.679Z,6.33
2019-02-17T03:25:51.944Z,5.83
2019-02-17T03:30:56.127Z,5.87
2019-02-17T03:36:01.504Z,5.93
2019-02-17T03:41:06.763Z,6.40
2019-02-17T03:46:12.373Z,6.93
2019-02-17T03:51:16.540Z,6.43
2019-02-17T03:56:22.199Z,6.97
2019-02-17T04:01:26.463Z,6.33
2019-02-17T04:06:32.173Z,7.70
2019-02-17T04:11:36.413Z,7.50
2019-02-17T04:16:41.656Z,7.17
2019-02-17T04:21:45.839Z,6.67
2019-02-17T04:26:50.079Z,7.60
2019-02-17T04:31:54.261Z,6.63
2019-02-17T04:36:58.511Z,7.23
2019-02-17T04:42:02.706Z,6.40
2019-02-17T04:47:08.306Z,8.27
2019-02-17T04:52:12.606Z,7.80
2019-02-17T04:57:16.875Z,7.83
2019-02-17T05:02:21.142Z,8.20
2019-02-17T05:07:25.361Z,7.03
2019-02-17T05:12:29.562Z,7.37
2019-02-17T05:17:35.131Z,7.27
2019-02-17T05:22:39.656Z,9.03
2019-02-17T05:27:43.919Z,8.10
2019-02-17T05:32:48.193Z,8.60
2019-02-17T05:37:53.814Z,8.73
2019-02-17T05:42:58.185Z,8.70
2019-02-17T05:48:03.537Z,8.30
2019-02-17T05:53:10.641Z,8.50
2019-02-17T05:58:15.970Z,8.30
2019-02-17T06:03:20.204Z,7.57
2019-02-17T06:08:25.326Z,8.83
2019-02-17T06:13:29.564Z,8.30
2019-02-17T06:18:34.888Z,9.20
2019-02-17T06:23:39.148Z,8.70
2019-02-17T06:28:43.639Z,9.70
2019-02-17T06:33:47.943Z,8.43
2019-02-17T06:38:52.691Z,9.83
2019-02-17T06:43:57.142Z,9.10
2019-02-17T06:49:02.397Z,9.60
2019-02-17T06:54:06.590Z,8.23
2019-02-17T06:59:12.001Z,10.30
2019-02-17T07:04:16.718Z,9.10
2019-02-17T07:09:21.891Z,9.47
2019-02-17T07:14:26.097Z,10.17
2019-02-17T07:19:31.260Z,8.83
2019-02-17T07:24:35.505Z,10.33
2019-02-17T07:29:40.584Z,10.13
2019-02-17T07:34:44.815Z,10.43
2019-02-17T07:39:50.082Z,10.23
2019-02-17T07:44:54.327Z,10.07
2019-02-17T07:50:00.523Z,11.23
2019-02-17T07:55:04.829Z,10.23
2019-02-17T08:00:09.745Z,11.67
2019-02-17T08:05:14.026Z,10.93
2019-02-17T08:10:18.882Z,10.20
2019-02-17T08:15:23.176Z,11.33
2019-02-17T08:20:27.499Z,10.20
2019-02-17T08:25:31.696Z,11.53
2019-02-17T08:30:36.735Z,9.03
2019-02-17T08:35:40.920Z,10.00
2019-02-17T08:40:45.396Z,9.85
2019-02-17T08:45:49.966Z,11.57
2019-02-17T08:50:54.331Z,10.78
2019-02-17T08:55:58.947Z,8.83
2019-02-17T09:01:03.566Z,12.50
2019-02-17T09:06:07.805Z,10.93
2019-02-17T09:11:12.878Z,12.60
2019-02-17T09:16:17.125Z,10.65
2019-02-17T09:21:22.051Z,10.65
2019-02-17T09:26:26.560Z,10.57
2019-02-17T09:31:32.160Z,10.13
2019-02-17T09:36:36.656Z,12.03
2019-02-17T09:41:42.608Z,7.17
2019-02-17T09:46:47.065Z,11.50
2019-02-17T09:51:52.778Z,7.53
2019-02-17T09:56:57.302Z,9.97
2019-02-17T10:02:03.189Z,11.23
2019-02-17T10:07:07.668Z,9.33
2019-02-17T10:12:13.463Z,9.23
2019-02-17T10:17:20.078Z,12.03
2019-02-17T10:22:24.848Z,9.73
2019-02-17T10:27:29.328Z,8.30
2019-02-17T10:32:39.032Z,10.37
2019-02-17T10:37:41.305Z,9.07
2019-02-17T10:42:47.281Z,10.50
2019-02-17T10:47:51.939Z,8.47
2019-02-17T10:52:58.618Z,11.60
2019-02-17T10:58:03.097Z,10.83
2019-02-17T11:03:09.152Z,10.20
2019-02-17T11:08:13.669Z,11.37
2019-02-17T11:13:19.644Z,10.27
2019-02-17T11:18:24.135Z,6.80
2019-02-17T11:23:29.851Z,9.40
2019-02-17T11:28:34.339Z,9.20
2019-02-17T11:33:40.056Z,9.73
2019-02-17T11:38:44.571Z,10.90
2019-02-17T11:43:50.143Z,8.63
2019-02-17T11:48:54.607Z,9.57
2019-02-17T11:54:00.351Z,8.97
2019-02-17T11:59:04.864Z,10.13
2019-02-17T12:04:10.813Z,10.90
2019-02-17T12:09:15.287Z,9.63
2019-02-17T12:14:21.425Z,12.10
2019-02-17T12:19:28.722Z,11.90
2019-02-17T12:24:46.941Z,8.40
2019-02-17T12:29:59.624Z,9.93
2019-02-17T12:35:04.289Z,9.13
2019-02-17T12:40:10.310Z,9.97
2019-02-17T12:45:18.137Z,10.67
2019-02-17T12:50:21.035Z,11.23
2019-02-17T12:55:25.564Z,11.13
2019-02-17T13:00:30.147Z,11.70
2019-02-17T13:05:34.630Z,11.67
2019-02-17T13:10:39.295Z,11.80
2019-02-17T13:15:43.778Z,11.40
2019-02-17T13:20:48.420Z,11.73
2019-02-17T13:25:52.924Z,10.40
2019-02-17T13:30:57.475Z,11.17
2019-02-17T13:36:02.055Z,8.37
2019-02-17T13:41:07.687Z,11.07
2019-02-17T13:46:12.202Z,9.83
2019-02-17T13:51:16.845Z,10.97
2019-02-17T13:56:21.404Z,11.77
2019-02-17T14:01:27.095Z,8.23
2019-02-17T14:06:31.721Z,10.33
2019-02-17T14:11:37.185Z,11.03
2019-02-17T14:16:41.671Z,10.77
2019-02-17T14:21:47.253Z,10.30
2019-02-17T14:26:52.899Z,10.70
2019-02-17T14:31:57.540Z,8.03
2019-02-17T14:37:02.111Z,9.27
2019-02-17T14:42:07.001Z,6.93
2019-02-17T14:47:14.390Z,7.73
2019-02-17T14:52:18.923Z,7.13
2019-02-17T14:57:23.417Z,9.87
2019-02-17T15:02:27.963Z,9.37
2019-02-17T15:07:32.593Z,7.47
2019-02-17T15:12:37.515Z,7.13
2019-02-17T15:17:42.077Z,9.33
2019-02-17T15:22:47.410Z,7.30
2019-02-17T15:27:53.127Z,7.17
2019-02-17T15:33:03.887Z,6.17
2019-02-17T15:38:04.131Z,5.10
2019-02-17T15:43:08.994Z,3.50
2019-02-17T15:48:13.524Z,3.67
2019-02-17T15:53:18.543Z,3.17
2019-02-17T15:58:23.374Z,3.33
2019-02-17T16:03:28.265Z,3.37
2019-02-17T16:08:32.806Z,3.73
2019-02-17T16:13:37.723Z,3.50
2019-02-17T16:18:42.332Z,3.33
2019-02-17T16:23:47.539Z,2.97
2019-02-17T16:28:52.022Z,2.80
2019-02-17T16:33:56.748Z,3.30
2019-02-17T16:39:01.120Z,2.75
2019-02-17T16:44:07.595Z,2.93
2019-02-17T16:49:12.104Z,3.20
2019-02-17T16:54:16.762Z,3.13
2019-02-17T16:59:21.080Z,3.02
2019-02-17T17:04:26.198Z,2.77
2019-02-17T17:09:30.480Z,3.00
2019-02-17T17:14:35.012Z,2.80
2019-02-17T17:19:39.351Z,2.77
2019-02-17T17:24:44.334Z,2.58
2019-02-17T17:29:48.738Z,2.35
2019-02-17T17:34:58.958Z,2.55
2019-02-17T17:39:59.219Z,3.07
2019-02-17T17:45:04.108Z,3.17
2019-02-17T17:50:09.118Z,2.67
2019-02-17T17:55:14.693Z,2.13
2019-02-17T18:00:20.025Z,2.70
2019-02-17T18:05:26.565Z,2.70
2019-02-17T18:10:31.023Z,2.73
2019-02-17T18:15:36.631Z,2.77
2019-02-17T18:20:40.846Z,2.67
2019-02-17T18:25:46.243Z,2.40
2019-02-17T18:30:50.778Z,3.07
2019-02-17T18:35:56.438Z,3.20
2019-02-17T18:41:00.727Z,2.87
2019-02-17T18:46:07.475Z,3.05
2019-02-17T18:51:11.669Z,2.77
2019-02-17T18:56:16.783Z,2.40
2019-02-17T19:01:21.370Z,3.00
2019-02-17T19:06:26.902Z,2.90
2019-02-17T19:11:31.344Z,3.10
2019-02-17T19:16:36.946Z,2.80
2019-02-17T19:21:41.242Z,3.20
2019-02-17T19:26:47.090Z,3.60
2019-02-17T19:31:51.274Z,3.50
2019-02-17T19:36:56.877Z,3.47
2019-02-17T19:42:01.420Z,3.60
2019-02-17T19:47:07.072Z,3.73
2019-02-17T19:52:11.267Z,4.17
2019-02-17T19:57:16.959Z,3.40
2019-02-17T20:02:30.190Z,3.03
2019-02-17T20:07:34.470Z,3.40
2019-02-17T20:12:39.080Z,3.70
2019-02-17T20:17:44.757Z,3.50
2019-02-17T20:22:49.052Z,3.90
2019-02-17T20:27:54.796Z,3.87
2019-02-17T20:32:59.088Z,3.70
2019-02-17T20:38:04.858Z,3.93
2019-02-17T20:43:09.218Z,3.90
2019-02-17T20:48:14.658Z,4.35
2019-02-17T20:53:18.967Z,3.90
2019-02-17T20:58:24.304Z,3.70
2019-02-17T21:03:28.751Z,3.87
2019-02-17T21:08:34.036Z,4.00
2019-02-17T21:13:38.239Z,3.87
2019-02-17T21:18:43.743Z,3.73
2019-02-17T21:23:48.485Z,4.07
2019-02-17T21:28:55.829Z,4.00
2019-02-17T21:34:00.009Z,4.33
2019-02-17T21:39:05.748Z,4.00
2019-02-17T21:44:09.944Z,4.73
2019-02-17T21:49:15.186Z,4.27
2019-02-17T21:54:19.359Z,4.50
2019-02-17T21:59:24.387Z,4.47
2019-02-17T22:04:30.290Z,3.80
2019-02-17T22:09:34.561Z,4.20
2019-02-17T22:14:39.568Z,4.23
2019-02-17T22:19:43.734Z,4.17
2019-02-17T22:24:48.435Z,4.37
2019-02-17T22:29:52.659Z,4.43
2019-02-17T22:34:57.806Z,4.50
2019-02-17T22:40:02.803Z,4.37
2019-02-17T22:45:07.645Z,4.40
2019-02-17T22:50:11.853Z,4.90
2019-02-17T22:55:16.391Z,5.07
2019-02-17T23:00:27.542Z,4.50
2019-02-17T23:05:33.100Z,4.70
2019-02-17T23:10:37.319Z,4.50
2019-02-17T23:15:41.501Z,5.17
2019-02-17T23:20:45.764Z,4.83
2019-02-17T23:25:49.956Z,4.60
2019-02-17T23:30:55.222Z,4.80
2019-02-17T23:35:59.411Z,4.80
2019-02-17T23:41:03.603Z,4.63
2019-02-17T23:46:07.770Z,4.97
2019-02-17T23:51:13.023Z,4.77
2019-02-17T23:56:17.198Z,4.47
